Terminal Aerodrome Forecast
Issued by NWS Cleveland, OH

Home | Current Version | Previous Version | Text Only | Print | Product List | Glossary Off
Versions: 1 2 3 4 5 6 7 8 9 10 11 12 13 14

741
FTUS41 KCLE 202326
TAFCAK
TAF
KCAK 202326Z 2100/2124 22011KT P6SM VCSH SCT035 OVC100
      TEMPO 2102/2103 VRB15G30KT 2SM TSRA SCT025CB OVC050
     FM210430 26012KT P6SM SCT025 OVC035
     FM211000 27012KT P6SM SCT015 OVC025
     FM212100 30012KT P6SM BKN025=

USA.gov is the U.S. government's official web portal to all federal, state and local government web resources and services.